sensor_id;sensor_type;location;lat;lon;timestamp;P1;durP1;ratioP1;P2;durP2;ratioP2
10641;SDS011;5369;49.586;8.646;2024-01-06T00:02:24;10.00;;;5.33;;
10641;SDS011;5369;49.586;8.646;2024-01-06T00:04:51;7.43;;;4.67;;
10641;SDS011;5369;49.586;8.646;2024-01-06T00:07:17;6.40;;;3.50;;
10641;SDS011;5369;49.586;8.646;2024-01-06T00:09:43;7.33;;;4.17;;
10641;SDS011;5369;49.586;8.646;2024-01-06T00:12:09;9.23;;;4.33;;
10641;SDS011;5369;49.586;8.646;2024-01-06T00:14:35;8.27;;;3.77;;
10641;SDS011;5369;49.586;8.646;2024-01-06T00:17:01;6.67;;;3.57;;
10641;SDS011;5369;49.586;8.646;2024-01-06T00:19:28;5.03;;;2.97;;
10641;SDS011;5369;49.586;8.646;2024-01-06T00:21:54;5.70;;;3.30;;
10641;SDS011;5369;49.586;8.646;2024-01-06T00:24:20;6.93;;;4.03;;
10641;SDS011;5369;49.586;8.646;2024-01-06T00:26:46;8.03;;;3.90;;
10641;SDS011;5369;49.586;8.646;2024-01-06T00:29:12;6.03;;;3.63;;
10641;SDS011;5369;49.586;8.646;2024-01-06T00:31:38;5.47;;;3.57;;
10641;SDS011;5369;49.586;8.646;2024-01-06T00:34:04;7.33;;;3.90;;
10641;SDS011;5369;49.586;8.646;2024-01-06T00:36:31;6.10;;;3.30;;
10641;SDS011;5369;49.586;8.646;2024-01-06T00:38:57;5.77;;;3.10;;
10641;SDS011;5369;49.586;8.646;2024-01-06T00:41:23;5.47;;;3.07;;
10641;SDS011;5369;49.586;8.646;2024-01-06T00:43:49;8.07;;;3.17;;
10641;SDS011;5369;49.586;8.646;2024-01-06T00:46:15;4.73;;;2.70;;
10641;SDS011;5369;49.586;8.646;2024-01-06T00:48:41;5.40;;;3.30;;
10641;SDS011;5369;49.586;8.646;2024-01-06T00:51:07;6.47;;;3.53;;
10641;SDS011;5369;49.586;8.646;2024-01-06T00:53:33;4.47;;;2.80;;
10641;SDS011;5369;49.586;8.646;2024-01-06T00:56:00;5.07;;;2.73;;
10641;SDS011;5369;49.586;8.646;2024-01-06T00:58:26;6.00;;;3.60;;
10641;SDS011;5369;49.586;8.646;2024-01-06T01:00:52;8.40;;;4.23;;
10641;SDS011;5369;49.586;8.646;2024-01-06T01:03:18;7.33;;;4.10;;
10641;SDS011;5369;49.586;8.646;2024-01-06T01:05:44;7.37;;;4.50;;
10641;SDS011;5369;49.586;8.646;2024-01-06T01:08:10;10.17;;;4.30;;
10641;SDS011;5369;49.586;8.646;2024-01-06T01:10:36;6.73;;;4.30;;
10641;SDS011;5369;49.586;8.646;2024-01-06T01:13:03;5.27;;;3.57;;
10641;SDS011;5369;49.586;8.646;2024-01-06T01:15:29;6.27;;;3.70;;
10641;SDS011;5369;49.586;8.646;2024-01-06T01:17:55;6.17;;;3.80;;
10641;SDS011;5369;49.586;8.646;2024-01-06T01:20:21;6.00;;;3.17;;
10641;SDS011;5369;49.586;8.646;2024-01-06T01:22:47;6.23;;;3.47;;
10641;SDS011;5369;49.586;8.646;2024-01-06T01:25:14;6.47;;;3.30;;
10641;SDS011;5369;49.586;8.646;2024-01-06T01:27:40;7.20;;;3.33;;
10641;SDS011;5369;49.586;8.646;2024-01-06T01:30:06;4.10;;;2.93;;
10641;SDS011;5369;49.586;8.646;2024-01-06T01:32:32;5.00;;;3.00;;
10641;SDS011;5369;49.586;8.646;2024-01-06T01:34:58;6.67;;;3.10;;
10641;SDS011;5369;49.586;8.646;2024-01-06T01:37:25;4.50;;;2.77;;
10641;SDS011;5369;49.586;8.646;2024-01-06T01:39:51;4.60;;;2.70;;
10641;SDS011;5369;49.586;8.646;2024-01-06T01:42:17;4.10;;;2.50;;
10641;SDS011;5369;49.586;8.646;2024-01-06T01:44:43;5.43;;;2.97;;
10641;SDS011;5369;49.586;8.646;2024-01-06T01:47:09;5.83;;;2.70;;
10641;SDS011;5369;49.586;8.646;2024-01-06T01:49:35;6.13;;;2.90;;
10641;SDS011;5369;49.586;8.646;2024-01-06T01:52:02;5.87;;;3.03;;
10641;SDS011;5369;49.586;8.646;2024-01-06T01:54:28;6.43;;;2.80;;
10641;SDS011;5369;49.586;8.646;2024-01-06T01:56:54;6.57;;;3.50;;
10641;SDS011;5369;49.586;8.646;2024-01-06T01:59:20;5.87;;;3.30;;
10641;SDS011;5369;49.586;8.646;2024-01-06T02:01:47;5.03;;;3.17;;
10641;SDS011;5369;49.586;8.646;2024-01-06T02:04:14;5.37;;;3.13;;
10641;SDS011;5369;49.586;8.646;2024-01-06T02:06:41;6.43;;;3.20;;
10641;SDS011;5369;49.586;8.646;2024-01-06T02:09:07;5.33;;;3.10;;
10641;SDS011;5369;49.586;8.646;2024-01-06T02:11:33;5.23;;;2.87;;
10641;SDS011;5369;49.586;8.646;2024-01-06T02:13:59;6.50;;;3.30;;
10641;SDS011;5369;49.586;8.646;2024-01-06T02:16:26;6.57;;;3.50;;
10641;SDS011;5369;49.586;8.646;2024-01-06T02:18:52;6.17;;;3.00;;
10641;SDS011;5369;49.586;8.646;2024-01-06T02:21:18;4.13;;;3.17;;
10641;SDS011;5369;49.586;8.646;2024-01-06T02:23:47;5.40;;;2.80;;
10641;SDS011;5369;49.586;8.646;2024-01-06T02:26:16;4.80;;;3.17;;
10641;SDS011;5369;49.586;8.646;2024-01-06T02:28:42;5.13;;;2.93;;
10641;SDS011;5369;49.586;8.646;2024-01-06T02:31:13;4.93;;;2.83;;
10641;SDS011;5369;49.586;8.646;2024-01-06T02:33:39;5.53;;;3.20;;
10641;SDS011;5369;49.586;8.646;2024-01-06T02:36:05;4.97;;;3.10;;
10641;SDS011;5369;49.586;8.646;2024-01-06T02:38:31;5.80;;;3.17;;
10641;SDS011;5369;49.586;8.646;2024-01-06T02:40:58;4.63;;;2.97;;
10641;SDS011;5369;49.586;8.646;2024-01-06T02:43:24;7.07;;;3.77;;
10641;SDS011;5369;49.586;8.646;2024-01-06T02:45:50;6.30;;;3.63;;
10641;SDS011;5369;49.586;8.646;2024-01-06T02:48:16;6.63;;;3.37;;
10641;SDS011;5369;49.586;8.646;2024-01-06T02:50:42;5.60;;;3.30;;
10641;SDS011;5369;49.586;8.646;2024-01-06T02:53:08;6.07;;;3.43;;
10641;SDS011;5369;49.586;8.646;2024-01-06T02:55:35;7.27;;;3.40;;
10641;SDS011;5369;49.586;8.646;2024-01-06T02:58:01;6.50;;;3.47;;
10641;SDS011;5369;49.586;8.646;2024-01-06T03:00:27;5.13;;;3.40;;
10641;SDS011;5369;49.586;8.646;2024-01-06T03:02:53;5.27;;;3.43;;
10641;SDS011;5369;49.586;8.646;2024-01-06T03:05:19;6.23;;;3.40;;
10641;SDS011;5369;49.586;8.646;2024-01-06T03:07:45;7.13;;;4.10;;
10641;SDS011;5369;49.586;8.646;2024-01-06T03:10:12;5.87;;;3.40;;
10641;SDS011;5369;49.586;8.646;2024-01-06T03:12:38;6.03;;;3.23;;
10641;SDS011;5369;49.586;8.646;2024-01-06T03:15:04;6.63;;;3.53;;
10641;SDS011;5369;49.586;8.646;2024-01-06T03:17:30;6.40;;;3.70;;
10641;SDS011;5369;49.586;8.646;2024-01-06T03:19:57;7.27;;;3.40;;
10641;SDS011;5369;49.586;8.646;2024-01-06T03:22:23;8.67;;;3.40;;
10641;SDS011;5369;49.586;8.646;2024-01-06T03:24:49;6.53;;;3.60;;
10641;SDS011;5369;49.586;8.646;2024-01-06T03:27:15;6.53;;;3.10;;
10641;SDS011;5369;49.586;8.646;2024-01-06T03:29:41;5.33;;;3.10;;
10641;SDS011;5369;49.586;8.646;2024-01-06T03:32:07;7.50;;;3.63;;
10641;SDS011;5369;49.586;8.646;2024-01-06T03:34:34;6.97;;;3.70;;
10641;SDS011;5369;49.586;8.646;2024-01-06T03:37:00;7.40;;;4.27;;
10641;SDS011;5369;49.586;8.646;2024-01-06T03:39:26;7.83;;;3.70;;
10641;SDS011;5369;49.586;8.646;2024-01-06T03:41:52;13.47;;;6.27;;
10641;SDS011;5369;49.586;8.646;2024-01-06T03:44:18;10.23;;;4.33;;
10641;SDS011;5369;49.586;8.646;2024-01-06T03:46:44;8.03;;;3.70;;
10641;SDS011;5369;49.586;8.646;2024-01-06T03:49:10;5.93;;;3.63;;
10641;SDS011;5369;49.586;8.646;2024-01-06T03:51:36;6.73;;;3.20;;
10641;SDS011;5369;49.586;8.646;2024-01-06T03:54:03;7.13;;;3.37;;
10641;SDS011;5369;49.586;8.646;2024-01-06T03:56:29;6.37;;;3.23;;
10641;SDS011;5369;49.586;8.646;2024-01-06T03:58:55;7.63;;;3.43;;
10641;SDS011;5369;49.586;8.646;2024-01-06T04:01:21;8.60;;;3.60;;
10641;SDS011;5369;49.586;8.646;2024-01-06T04:03:47;7.53;;;3.60;;
10641;SDS011;5369;49.586;8.646;2024-01-06T04:06:13;5.57;;;3.43;;
10641;SDS011;5369;49.586;8.646;2024-01-06T04:08:40;9.73;;;3.07;;
10641;SDS011;5369;49.586;8.646;2024-01-06T04:11:06;5.87;;;3.33;;
10641;SDS011;5369;49.586;8.646;2024-01-06T04:13:32;6.73;;;3.50;;
10641;SDS011;5369;49.586;8.646;2024-01-06T04:15:58;6.13;;;2.90;;
10641;SDS011;5369;49.586;8.646;2024-01-06T04:18:25;6.30;;;3.03;;
10641;SDS011;5369;49.586;8.646;2024-01-06T04:20:51;5.53;;;3.13;;
10641;SDS011;5369;49.586;8.646;2024-01-06T04:23:17;5.73;;;2.77;;
10641;SDS011;5369;49.586;8.646;2024-01-06T04:25:43;5.60;;;3.10;;
10641;SDS011;5369;49.586;8.646;2024-01-06T04:28:09;6.07;;;3.20;;
10641;SDS011;5369;49.586;8.646;2024-01-06T04:30:35;7.50;;;3.50;;
10641;SDS011;5369;49.586;8.646;2024-01-06T04:33:01;6.23;;;3.30;;
10641;SDS011;5369;49.586;8.646;2024-01-06T04:35:28;6.07;;;3.27;;
10641;SDS011;5369;49.586;8.646;2024-01-06T04:37:54;6.00;;;3.13;;
10641;SDS011;5369;49.586;8.646;2024-01-06T04:40:21;6.07;;;3.23;;
10641;SDS011;5369;49.586;8.646;2024-01-06T04:42:47;6.03;;;3.37;;
10641;SDS011;5369;49.586;8.646;2024-01-06T04:45:13;4.47;;;3.00;;
10641;SDS011;5369;49.586;8.646;2024-01-06T04:47:39;7.43;;;3.60;;
10641;SDS011;5369;49.586;8.646;2024-01-06T04:50:05;5.03;;;3.37;;
10641;SDS011;5369;49.586;8.646;2024-01-06T04:52:32;4.37;;;2.90;;
10641;SDS011;5369;49.586;8.646;2024-01-06T04:54:58;4.77;;;2.97;;
10641;SDS011;5369;49.586;8.646;2024-01-06T04:57:24;4.90;;;2.83;;
10641;SDS011;5369;49.586;8.646;2024-01-06T04:59:50;6.37;;;2.93;;
10641;SDS011;5369;49.586;8.646;2024-01-06T05:02:16;5.63;;;3.20;;
10641;SDS011;5369;49.586;8.646;2024-01-06T05:04:43;7.50;;;2.80;;
10641;SDS011;5369;49.586;8.646;2024-01-06T05:07:09;4.47;;;2.97;;
10641;SDS011;5369;49.586;8.646;2024-01-06T05:09:35;4.07;;;2.97;;
10641;SDS011;5369;49.586;8.646;2024-01-06T05:12:01;4.83;;;3.00;;
10641;SDS011;5369;49.586;8.646;2024-01-06T05:14:27;7.27;;;3.97;;
10641;SDS011;5369;49.586;8.646;2024-01-06T05:16:53;6.67;;;3.70;;
10641;SDS011;5369;49.586;8.646;2024-01-06T05:19:19;5.30;;;3.20;;
10641;SDS011;5369;49.586;8.646;2024-01-06T05:21:49;3.80;;;2.93;;
10641;SDS011;5369;49.586;8.646;2024-01-06T05:24:15;5.47;;;3.53;;
10641;SDS011;5369;49.586;8.646;2024-01-06T05:26:41;8.93;;;3.67;;
10641;SDS011;5369;49.586;8.646;2024-01-06T05:29:07;7.17;;;3.70;;
10641;SDS011;5369;49.586;8.646;2024-01-06T05:31:34;6.53;;;3.10;;
10641;SDS011;5369;49.586;8.646;2024-01-06T05:34:00;5.97;;;3.07;;
10641;SDS011;5369;49.586;8.646;2024-01-06T05:36:26;5.20;;;3.60;;
10641;SDS011;5369;49.586;8.646;2024-01-06T05:38:52;10.93;;;3.83;;
10641;SDS011;5369;49.586;8.646;2024-01-06T05:41:18;7.83;;;3.77;;
10641;SDS011;5369;49.586;8.646;2024-01-06T05:43:44;6.53;;;3.70;;
10641;SDS011;5369;49.586;8.646;2024-01-06T05:46:10;10.27;;;4.00;;
10641;SDS011;5369;49.586;8.646;2024-01-06T05:48:37;7.10;;;4.20;;
10641;SDS011;5369;49.586;8.646;2024-01-06T05:51:06;6.93;;;4.00;;
10641;SDS011;5369;49.586;8.646;2024-01-06T05:53:32;8.10;;;3.90;;
10641;SDS011;5369;49.586;8.646;2024-01-06T05:55:58;7.90;;;4.23;;
10641;SDS011;5369;49.586;8.646;2024-01-06T05:58:24;5.17;;;3.90;;
10641;SDS011;5369;49.586;8.646;2024-01-06T06:00:50;7.57;;;3.70;;
10641;SDS011;5369;49.586;8.646;2024-01-06T06:03:16;6.37;;;3.70;;
10641;SDS011;5369;49.586;8.646;2024-01-06T06:05:42;6.23;;;3.60;;
10641;SDS011;5369;49.586;8.646;2024-01-06T06:08:10;6.10;;;3.50;;
10641;SDS011;5369;49.586;8.646;2024-01-06T06:10:36;6.97;;;3.70;;
10641;SDS011;5369;49.586;8.646;2024-01-06T06:13:25;5.90;;;3.40;;
10641;SDS011;5369;49.586;8.646;2024-01-06T06:15:51;6.30;;;3.77;;
10641;SDS011;5369;49.586;8.646;2024-01-06T06:18:18;5.63;;;3.43;;
10641;SDS011;5369;49.586;8.646;2024-01-06T06:20:44;4.87;;;3.40;;
10641;SDS011;5369;49.586;8.646;2024-01-06T06:23:10;6.90;;;3.70;;
10641;SDS011;5369;49.586;8.646;2024-01-06T06:25:38;7.37;;;3.90;;
10641;SDS011;5369;49.586;8.646;2024-01-06T06:28:04;5.40;;;3.30;;
10641;SDS011;5369;49.586;8.646;2024-01-06T06:30:31;6.37;;;3.60;;
10641;SDS011;5369;49.586;8.646;2024-01-06T06:32:58;8.07;;;3.60;;
10641;SDS011;5369;49.586;8.646;2024-01-06T06:35:24;5.70;;;3.60;;
10641;SDS011;5369;49.586;8.646;2024-01-06T06:37:50;6.90;;;3.60;;
10641;SDS011;5369;49.586;8.646;2024-01-06T06:40:16;7.73;;;3.37;;
10641;SDS011;5369;49.586;8.646;2024-01-06T06:42:42;7.20;;;3.47;;
10641;SDS011;5369;49.586;8.646;2024-01-06T06:45:08;7.53;;;3.57;;
10641;SDS011;5369;49.586;8.646;2024-01-06T06:47:37;6.80;;;3.57;;
10641;SDS011;5369;49.586;8.646;2024-01-06T06:50:03;6.50;;;3.47;;
10641;SDS011;5369;49.586;8.646;2024-01-06T06:52:29;7.60;;;3.60;;
10641;SDS011;5369;49.586;8.646;2024-01-06T06:54:55;4.80;;;3.07;;
10641;SDS011;5369;49.586;8.646;2024-01-06T06:57:21;6.30;;;3.30;;
10641;SDS011;5369;49.586;8.646;2024-01-06T06:59:49;6.70;;;3.50;;
10641;SDS011;5369;49.586;8.646;2024-01-06T07:02:15;6.07;;;3.47;;
10641;SDS011;5369;49.586;8.646;2024-01-06T07:04:41;6.27;;;3.60;;
10641;SDS011;5369;49.586;8.646;2024-01-06T07:07:07;5.33;;;3.60;;
10641;SDS011;5369;49.586;8.646;2024-01-06T07:09:33;5.23;;;3.23;;
10641;SDS011;5369;49.586;8.646;2024-01-06T07:12:00;4.93;;;3.27;;
10641;SDS011;5369;49.586;8.646;2024-01-06T07:14:26;7.80;;;3.50;;
10641;SDS011;5369;49.586;8.646;2024-01-06T07:16:52;5.80;;;3.33;;
10641;SDS011;5369;49.586;8.646;2024-01-06T07:19:18;6.40;;;3.23;;
10641;SDS011;5369;49.586;8.646;2024-01-06T07:21:45;6.73;;;3.60;;
10641;SDS011;5369;49.586;8.646;2024-01-06T07:24:11;5.53;;;3.40;;
10641;SDS011;5369;49.586;8.646;2024-01-06T07:26:37;5.03;;;3.30;;
10641;SDS011;5369;49.586;8.646;2024-01-06T07:29:03;6.20;;;3.60;;
10641;SDS011;5369;49.586;8.646;2024-01-06T07:31:29;6.73;;;3.23;;
10641;SDS011;5369;49.586;8.646;2024-01-06T07:33:55;8.13;;;3.37;;
10641;SDS011;5369;49.586;8.646;2024-01-06T07:36:22;7.90;;;3.30;;
10641;SDS011;5369;49.586;8.646;2024-01-06T07:38:48;6.53;;;3.10;;
10641;SDS011;5369;49.586;8.646;2024-01-06T07:41:14;5.77;;;3.30;;
10641;SDS011;5369;49.586;8.646;2024-01-06T07:43:40;7.07;;;3.30;;
10641;SDS011;5369;49.586;8.646;2024-01-06T07:46:06;7.03;;;3.67;;
10641;SDS011;5369;49.586;8.646;2024-01-06T07:48:34;6.73;;;3.87;;
10641;SDS011;5369;49.586;8.646;2024-01-06T07:51:01;5.63;;;3.17;;
10641;SDS011;5369;49.586;8.646;2024-01-06T07:53:28;9.80;;;3.60;;
10641;SDS011;5369;49.586;8.646;2024-01-06T07:55:55;6.77;;;3.23;;
10641;SDS011;5369;49.586;8.646;2024-01-06T07:58:21;4.73;;;3.30;;
10641;SDS011;5369;49.586;8.646;2024-01-06T08:00:47;5.60;;;3.43;;
10641;SDS011;5369;49.586;8.646;2024-01-06T08:03:13;4.63;;;3.33;;
10641;SDS011;5369;49.586;8.646;2024-01-06T08:05:41;6.93;;;3.90;;
10641;SDS011;5369;49.586;8.646;2024-01-06T08:08:07;8.07;;;3.80;;
10641;SDS011;5369;49.586;8.646;2024-01-06T08:10:34;5.83;;;3.73;;
10641;SDS011;5369;49.586;8.646;2024-01-06T08:13:00;7.70;;;3.80;;
10641;SDS011;5369;49.586;8.646;2024-01-06T08:15:26;7.00;;;3.90;;
10641;SDS011;5369;49.586;8.646;2024-01-06T08:17:52;5.23;;;3.53;;
10641;SDS011;5369;49.586;8.646;2024-01-06T08:20:18;6.50;;;3.57;;
10641;SDS011;5369;49.586;8.646;2024-01-06T08:22:44;8.87;;;3.73;;
10641;SDS011;5369;49.586;8.646;2024-01-06T08:25:10;5.03;;;3.80;;
10641;SDS011;5369;49.586;8.646;2024-01-06T08:27:38;7.17;;;4.50;;
10641;SDS011;5369;49.586;8.646;2024-01-06T08:30:05;6.30;;;3.90;;
10641;SDS011;5369;49.586;8.646;2024-01-06T08:32:31;5.73;;;3.57;;
10641;SDS011;5369;49.586;8.646;2024-01-06T08:34:57;5.53;;;3.90;;
10641;SDS011;5369;49.586;8.646;2024-01-06T08:37:23;5.97;;;3.60;;
10641;SDS011;5369;49.586;8.646;2024-01-06T08:39:50;6.30;;;3.90;;
10641;SDS011;5369;49.586;8.646;2024-01-06T08:42:16;7.57;;;4.17;;
10641;SDS011;5369;49.586;8.646;2024-01-06T08:44:42;7.80;;;4.20;;
10641;SDS011;5369;49.586;8.646;2024-01-06T08:47:09;7.83;;;4.70;;
10641;SDS011;5369;49.586;8.646;2024-01-06T08:49:35;7.07;;;4.47;;
10641;SDS011;5369;49.586;8.646;2024-01-06T08:52:01;8.57;;;4.10;;
10641;SDS011;5369;49.586;8.646;2024-01-06T08:54:27;6.80;;;4.80;;
10641;SDS011;5369;49.586;8.646;2024-01-06T08:56:54;5.30;;;4.03;;
10641;SDS011;5369;49.586;8.646;2024-01-06T08:59:20;7.17;;;4.10;;
10641;SDS011;5369;49.586;8.646;2024-01-06T09:01:47;6.77;;;4.37;;
10641;SDS011;5369;49.586;8.646;2024-01-06T09:04:13;6.37;;;4.03;;
10641;SDS011;5369;49.586;8.646;2024-01-06T09:06:40;7.07;;;4.33;;
10641;SDS011;5369;49.586;8.646;2024-01-06T09:09:10;5.40;;;3.83;;
10641;SDS011;5369;49.586;8.646;2024-01-06T09:11:36;6.43;;;3.93;;
10641;SDS011;5369;49.586;8.646;2024-01-06T09:14:02;6.70;;;4.40;;
10641;SDS011;5369;49.586;8.646;2024-01-06T09:16:29;7.13;;;4.70;;
10641;SDS011;5369;49.586;8.646;2024-01-06T09:18:55;5.87;;;4.10;;
10641;SDS011;5369;49.586;8.646;2024-01-06T09:21:21;5.77;;;4.23;;
10641;SDS011;5369;49.586;8.646;2024-01-06T09:23:47;5.73;;;4.47;;
10641;SDS011;5369;49.586;8.646;2024-01-06T09:26:14;7.57;;;4.37;;
10641;SDS011;5369;49.586;8.646;2024-01-06T09:28:41;8.03;;;4.10;;
10641;SDS011;5369;49.586;8.646;2024-01-06T09:31:07;5.33;;;4.40;;
10641;SDS011;5369;49.586;8.646;2024-01-06T09:33:34;6.57;;;4.03;;
10641;SDS011;5369;49.586;8.646;2024-01-06T09:36:00;5.83;;;4.30;;
10641;SDS011;5369;49.586;8.646;2024-01-06T09:38:26;6.80;;;4.30;;
10641;SDS011;5369;49.586;8.646;2024-01-06T09:40:52;6.57;;;4.23;;
10641;SDS011;5369;49.586;8.646;2024-01-06T09:43:19;6.73;;;4.20;;
10641;SDS011;5369;49.586;8.646;2024-01-06T09:45:47;5.23;;;3.70;;
10641;SDS011;5369;49.586;8.646;2024-01-06T09:48:14;8.77;;;4.30;;
10641;SDS011;5369;49.586;8.646;2024-01-06T09:50:42;5.10;;;4.13;;
10641;SDS011;5369;49.586;8.646;2024-01-06T09:53:12;5.67;;;4.43;;
10641;SDS011;5369;49.586;8.646;2024-01-06T09:55:39;6.47;;;4.00;;
10641;SDS011;5369;49.586;8.646;2024-01-06T09:58:05;6.03;;;4.30;;
10641;SDS011;5369;49.586;8.646;2024-01-06T10:00:31;7.37;;;4.60;;
10641;SDS011;5369;49.586;8.646;2024-01-06T10:02:58;5.73;;;4.20;;
10641;SDS011;5369;49.586;8.646;2024-01-06T10:05:24;8.27;;;4.20;;
10641;SDS011;5369;49.586;8.646;2024-01-06T10:07:51;6.27;;;4.57;;
10641;SDS011;5369;49.586;8.646;2024-01-06T10:10:17;8.47;;;4.43;;
10641;SDS011;5369;49.586;8.646;2024-01-06T10:12:45;8.40;;;4.77;;
10641;SDS011;5369;49.586;8.646;2024-01-06T10:15:11;8.63;;;4.60;;
10641;SDS011;5369;49.586;8.646;2024-01-06T10:17:38;6.87;;;4.50;;
10641;SDS011;5369;49.586;8.646;2024-01-06T10:20:08;8.13;;;4.40;;
10641;SDS011;5369;49.586;8.646;2024-01-06T10:22:40;6.83;;;4.57;;
10641;SDS011;5369;49.586;8.646;2024-01-06T10:25:07;6.60;;;4.50;;
10641;SDS011;5369;49.586;8.646;2024-01-06T10:27:40;7.87;;;4.30;;
10641;SDS011;5369;49.586;8.646;2024-01-06T10:30:07;7.40;;;4.70;;
10641;SDS011;5369;49.586;8.646;2024-01-06T10:32:33;6.40;;;4.70;;
10641;SDS011;5369;49.586;8.646;2024-01-06T10:35:01;5.53;;;4.33;;
10641;SDS011;5369;49.586;8.646;2024-01-06T10:37:29;6.53;;;4.87;;
10641;SDS011;5369;49.586;8.646;2024-01-06T10:40:14;8.13;;;4.83;;
10641;SDS011;5369;49.586;8.646;2024-01-06T10:42:44;6.57;;;4.53;;
10641;SDS011;5369;49.586;8.646;2024-01-06T10:45:11;7.03;;;4.67;;
10641;SDS011;5369;49.586;8.646;2024-01-06T10:47:40;5.47;;;4.43;;
10641;SDS011;5369;49.586;8.646;2024-01-06T10:50:06;6.37;;;4.60;;
10641;SDS011;5369;49.586;8.646;2024-01-06T10:52:36;6.13;;;4.63;;
10641;SDS011;5369;49.586;8.646;2024-01-06T10:55:02;7.93;;;5.10;;
10641;SDS011;5369;49.586;8.646;2024-01-06T10:57:30;6.37;;;4.87;;
10641;SDS011;5369;49.586;8.646;2024-01-06T10:59:57;6.37;;;4.60;;
10641;SDS011;5369;49.586;8.646;2024-01-06T11:02:24;6.30;;;4.60;;
10641;SDS011;5369;49.586;8.646;2024-01-06T11:04:50;8.27;;;4.43;;
10641;SDS011;5369;49.586;8.646;2024-01-06T11:07:17;7.40;;;5.23;;
10641;SDS011;5369;49.586;8.646;2024-01-06T11:09:46;7.00;;;4.80;;
10641;SDS011;5369;49.586;8.646;2024-01-06T11:12:16;7.53;;;5.17;;
10641;SDS011;5369;49.586;8.646;2024-01-06T11:14:42;8.50;;;5.60;;
10641;SDS011;5369;49.586;8.646;2024-01-06T11:17:11;7.73;;;5.37;;
10641;SDS011;5369;49.586;8.646;2024-01-06T11:27:31;6.97;;;5.00;;
10641;SDS011;5369;49.586;8.646;2024-01-06T11:29:58;7.07;;;4.90;;
10641;SDS011;5369;49.586;8.646;2024-01-06T11:32:34;7.47;;;5.77;;
10641;SDS011;5369;49.586;8.646;2024-01-06T11:35:05;7.87;;;5.70;;
10641;SDS011;5369;49.586;8.646;2024-01-06T11:40:15;8.10;;;5.93;;
10641;SDS011;5369;49.586;8.646;2024-01-06T11:42:44;7.27;;;5.53;;
10641;SDS011;5369;49.586;8.646;2024-01-06T11:45:10;9.83;;;5.87;;
10641;SDS011;5369;49.586;8.646;2024-01-06T11:47:36;8.77;;;6.17;;
10641;SDS011;5369;49.586;8.646;2024-01-06T11:50:02;10.33;;;7.80;;
10641;SDS011;5369;49.586;8.646;2024-01-06T11:52:32;10.50;;;6.90;;
10641;SDS011;5369;49.586;8.646;2024-01-06T11:54:58;9.70;;;6.77;;
10641;SDS011;5369;49.586;8.646;2024-01-06T11:57:28;7.83;;;6.00;;
10641;SDS011;5369;49.586;8.646;2024-01-06T11:59:54;9.77;;;6.67;;
10641;SDS011;5369;49.586;8.646;2024-01-06T12:02:21;7.53;;;5.60;;
10641;SDS011;5369;49.586;8.646;2024-01-06T12:04:51;7.30;;;5.77;;
10641;SDS011;5369;49.586;8.646;2024-01-06T12:07:18;11.73;;;8.80;;
10641;SDS011;5369;49.586;8.646;2024-01-06T12:09:45;9.13;;;7.07;;
10641;SDS011;5369;49.586;8.646;2024-01-06T12:12:15;8.50;;;7.00;;
10641;SDS011;5369;49.586;8.646;2024-01-06T12:14:41;7.63;;;6.27;;
10641;SDS011;5369;49.586;8.646;2024-01-06T12:17:07;7.73;;;6.17;;
10641;SDS011;5369;49.586;8.646;2024-01-06T12:19:33;11.00;;;6.33;;
10641;SDS011;5369;49.586;8.646;2024-01-06T12:22:00;8.53;;;5.87;;
10641;SDS011;5369;49.586;8.646;2024-01-06T12:24:27;8.53;;;6.03;;
10641;SDS011;5369;49.586;8.646;2024-01-06T12:26:57;8.23;;;6.00;;
10641;SDS011;5369;49.586;8.646;2024-01-06T12:29:27;7.33;;;5.87;;
10641;SDS011;5369;49.586;8.646;2024-01-06T12:31:55;8.70;;;6.47;;
10641;SDS011;5369;49.586;8.646;2024-01-06T12:34:21;11.27;;;7.10;;
10641;SDS011;5369;49.586;8.646;2024-01-06T12:36:48;9.40;;;7.13;;
10641;SDS011;5369;49.586;8.646;2024-01-06T12:39:18;9.03;;;6.80;;
10641;SDS011;5369;49.586;8.646;2024-01-06T12:41:44;10.03;;;7.43;;
10641;SDS011;5369;49.586;8.646;2024-01-06T12:44:11;8.30;;;7.00;;
10641;SDS011;5369;49.586;8.646;2024-01-06T12:46:37;9.80;;;6.60;;
10641;SDS011;5369;49.586;8.646;2024-01-06T12:49:04;8.83;;;7.17;;
10641;SDS011;5369;49.586;8.646;2024-01-06T12:51:30;11.50;;;7.33;;
10641;SDS011;5369;49.586;8.646;2024-01-06T12:53:56;10.07;;;7.13;;
10641;SDS011;5369;49.586;8.646;2024-01-06T12:56:22;10.67;;;8.00;;
10641;SDS011;5369;49.586;8.646;2024-01-06T12:58:48;9.03;;;6.87;;
10641;SDS011;5369;49.586;8.646;2024-01-06T13:01:14;11.90;;;6.83;;
10641;SDS011;5369;49.586;8.646;2024-01-06T13:03:40;9.10;;;7.20;;
10641;SDS011;5369;49.586;8.646;2024-01-06T13:06:07;8.07;;;6.63;;
10641;SDS011;5369;49.586;8.646;2024-01-06T13:08:33;13.33;;;7.47;;
10641;SDS011;5369;49.586;8.646;2024-01-06T13:10:59;9.53;;;7.20;;
10641;SDS011;5369;49.586;8.646;2024-01-06T13:13:25;9.43;;;7.87;;
10641;SDS011;5369;49.586;8.646;2024-01-06T13:15:51;9.47;;;7.83;;
10641;SDS011;5369;49.586;8.646;2024-01-06T13:18:18;9.20;;;6.77;;
10641;SDS011;5369;49.586;8.646;2024-01-06T13:20:44;9.10;;;6.87;;
10641;SDS011;5369;49.586;8.646;2024-01-06T13:23:11;8.10;;;6.40;;
10641;SDS011;5369;49.586;8.646;2024-01-06T13:25:37;8.73;;;7.53;;
10641;SDS011;5369;49.586;8.646;2024-01-06T13:28:07;9.87;;;7.40;;
10641;SDS011;5369;49.586;8.646;2024-01-06T13:30:33;9.63;;;7.53;;
10641;SDS011;5369;49.586;8.646;2024-01-06T13:33:00;10.87;;;8.50;;
10641;SDS011;5369;49.586;8.646;2024-01-06T13:35:28;13.20;;;9.90;;
10641;SDS011;5369;49.586;8.646;2024-01-06T13:37:55;12.07;;;9.10;;
10641;SDS011;5369;49.586;8.646;2024-01-06T13:40:21;10.77;;;8.90;;
10641;SDS011;5369;49.586;8.646;2024-01-06T13:42:51;9.27;;;7.70;;
10641;SDS011;5369;49.586;8.646;2024-01-06T13:45:17;10.73;;;7.27;;
10641;SDS011;5369;49.586;8.646;2024-01-06T13:47:44;8.57;;;6.67;;
10641;SDS011;5369;49.586;8.646;2024-01-06T13:50:11;9.13;;;6.87;;
10641;SDS011;5369;49.586;8.646;2024-01-06T13:52:38;8.73;;;6.47;;
10641;SDS011;5369;49.586;8.646;2024-01-06T13:55:05;7.50;;;6.00;;
10641;SDS011;5369;49.586;8.646;2024-01-06T13:57:31;11.13;;;6.53;;
10641;SDS011;5369;49.586;8.646;2024-01-06T13:59:58;8.27;;;6.20;;
10641;SDS011;5369;49.586;8.646;2024-01-06T14:02:24;7.00;;;6.07;;
10641;SDS011;5369;49.586;8.646;2024-01-06T14:04:50;7.97;;;6.70;;
10641;SDS011;5369;49.586;8.646;2024-01-06T14:07:17;11.50;;;6.97;;
10641;SDS011;5369;49.586;8.646;2024-01-06T14:09:47;8.20;;;6.50;;
10641;SDS011;5369;49.586;8.646;2024-01-06T14:12:13;10.50;;;6.37;;
10641;SDS011;5369;49.586;8.646;2024-01-06T14:14:40;9.20;;;6.40;;
10641;SDS011;5369;49.586;8.646;2024-01-06T14:17:07;7.87;;;6.33;;
10641;SDS011;5369;49.586;8.646;2024-01-06T14:19:33;8.73;;;6.13;;
10641;SDS011;5369;49.586;8.646;2024-01-06T14:21:59;8.83;;;7.23;;
10641;SDS011;5369;49.586;8.646;2024-01-06T14:24:26;7.97;;;6.70;;
10641;SDS011;5369;49.586;8.646;2024-01-06T14:26:52;10.73;;;6.93;;
10641;SDS011;5369;49.586;8.646;2024-01-06T14:29:20;8.73;;;7.03;;
10641;SDS011;5369;49.586;8.646;2024-01-06T14:31:46;9.73;;;7.57;;
10641;SDS011;5369;49.586;8.646;2024-01-06T14:34:13;7.63;;;6.53;;
10641;SDS011;5369;49.586;8.646;2024-01-06T14:36:39;8.10;;;6.90;;
10641;SDS011;5369;49.586;8.646;2024-01-06T14:39:15;8.37;;;6.40;;
10641;SDS011;5369;49.586;8.646;2024-01-06T14:41:41;10.23;;;7.23;;
10641;SDS011;5369;49.586;8.646;2024-01-06T14:44:08;8.60;;;7.00;;
10641;SDS011;5369;49.586;8.646;2024-01-06T14:46:34;9.50;;;7.33;;
10641;SDS011;5369;49.586;8.646;2024-01-06T14:49:02;9.00;;;7.13;;
10641;SDS011;5369;49.586;8.646;2024-01-06T14:51:28;8.37;;;6.80;;
10641;SDS011;5369;49.586;8.646;2024-01-06T14:53:54;8.00;;;7.20;;
10641;SDS011;5369;49.586;8.646;2024-01-06T14:56:22;10.10;;;7.13;;
10641;SDS011;5369;49.586;8.646;2024-01-06T14:58:48;9.03;;;7.67;;
10641;SDS011;5369;49.586;8.646;2024-01-06T15:01:14;10.40;;;7.20;;
10641;SDS011;5369;49.586;8.646;2024-01-06T15:03:40;8.03;;;6.83;;
10641;SDS011;5369;49.586;8.646;2024-01-06T15:06:06;8.47;;;7.47;;
10641;SDS011;5369;49.586;8.646;2024-01-06T15:08:33;11.53;;;8.70;;